Willernie, Minnesota
Current Conditions -  °F | °C
As of 4:31 AM on Friday 21 Nov 2014 (Local Time) from K21D Reporting Station
Clear Clear  
Wind Chill: -6°   Ceiling: Unl
Heat Index:   Visibility: 10mi
Dew Point:   Wind: 5mph
Humidity: 92%   Direction: 170°S
Pressure: 30.25"   Gusts: NA
Location:  45.05°N, 92.96°W
Report Text: K21D 211031Z AUTO 17004KT 10SM CLR M16/M17 A3025 RMK AO2
Loading
Personal Weather Stations






























Interactive Weather Map New forecast layout! Learn more

10-Day Weather Forecast

Advertisements
Track Severe Weather on mobile